createdAt,value
2018-09-17T00:02:03.330Z,3
2018-09-17T00:07:05.724Z,3
2018-09-17T00:12:08.154Z,3
2018-09-17T00:17:10.661Z,3
2018-09-17T00:22:13.056Z,3
2018-09-17T00:27:15.493Z,4
2018-09-17T00:32:17.953Z,3
2018-09-17T00:37:20.383Z,3
2018-09-17T00:42:22.812Z,4
2018-09-17T00:47:25.244Z,4
2018-09-17T00:52:27.694Z,3
2018-09-17T00:57:30.142Z,4
2018-09-17T01:02:32.628Z,4
2018-09-17T01:07:35.002Z,4
2018-09-17T01:12:37.467Z,4
2018-09-17T01:17:39.907Z,4
2018-09-17T01:22:42.366Z,4
2018-09-17T01:27:44.771Z,3
2018-09-17T01:32:47.222Z,4
2018-09-17T01:37:49.645Z,4
2018-09-17T01:42:52.122Z,3
2018-09-17T01:47:54.548Z,4
2018-09-17T01:52:57.023Z,4
2018-09-17T01:57:59.406Z,4
2018-09-17T02:03:01.870Z,4
2018-09-17T02:08:04.447Z,4
2018-09-17T02:13:06.737Z,4
2018-09-17T02:18:09.185Z,4
2018-09-17T02:23:11.621Z,4
2018-09-17T02:28:14.059Z,4
2018-09-17T02:33:16.501Z,4
2018-09-17T02:38:18.914Z,4
2018-09-17T02:43:21.697Z,6
2018-09-17T02:48:23.825Z,5
2018-09-17T02:53:26.387Z,4
2018-09-17T02:58:28.689Z,5
2018-09-17T03:03:31.147Z,5
2018-09-17T03:08:33.640Z,4
2018-09-17T03:13:36.073Z,5
2018-09-17T03:18:38.455Z,5
2018-09-17T03:23:40.907Z,5
2018-09-17T03:28:43.335Z,5
2018-09-17T03:33:45.776Z,6
2018-09-17T03:38:48.482Z,5
2018-09-17T03:43:50.652Z,5
2018-09-17T03:48:53.140Z,5
2018-09-17T03:53:55.557Z,6
2018-09-17T03:58:58.003Z,5
2018-09-17T04:04:00.441Z,6
2018-09-17T04:09:02.856Z,6
2018-09-17T04:14:05.306Z,6
2018-09-17T04:19:07.905Z,7
2018-09-17T04:24:10.230Z,6
2018-09-17T04:29:12.637Z,5
2018-09-17T04:34:15.167Z,6
2018-09-17T04:39:17.483Z,6
2018-09-17T04:44:19.954Z,6
2018-09-17T04:49:22.528Z,6
2018-09-17T04:54:24.805Z,6
2018-09-17T04:59:27.270Z,6
2018-09-17T05:04:29.698Z,6
2018-09-17T05:09:32.254Z,6
2018-09-17T05:14:34.572Z,7
2018-09-17T05:19:37.087Z,7
2018-09-17T05:24:39.462Z,6
2018-09-17T05:29:41.894Z,7
2018-09-17T05:34:44.367Z,7
2018-09-17T05:39:46.770Z,7
2018-09-17T05:44:49.310Z,7
2018-09-17T05:49:51.658Z,8
2018-09-17T05:54:54.081Z,7
2018-09-17T05:59:56.536Z,7
2018-09-17T06:04:59.001Z,8
2018-09-17T06:10:01.482Z,8
2018-09-17T06:15:03.895Z,8
2018-09-17T06:20:06.288Z,7
2018-09-17T06:25:09.072Z,7
2018-09-17T06:30:11.443Z,8
2018-09-17T06:35:13.605Z,7
2018-09-17T06:40:16.055Z,7
2018-09-17T06:45:18.489Z,7
2018-09-17T06:50:21.032Z,7
2018-09-17T06:55:23.376Z,6
2018-09-17T07:00:25.864Z,6
2018-09-17T07:05:28.260Z,8
2018-09-17T07:10:30.699Z,6
2018-09-17T07:15:33.163Z,5
2018-09-17T07:20:35.758Z,6
2018-09-17T07:25:38.013Z,6
2018-09-17T07:30:40.453Z,6
2018-09-17T07:35:42.903Z,6
2018-09-17T07:40:45.494Z,6
2018-09-17T07:45:47.780Z,6
2018-09-17T07:50:50.262Z,6
2018-09-17T07:55:52.739Z,5
2018-09-17T08:00:55.127Z,5
2018-09-17T08:05:57.575Z,6
2018-09-17T08:11:00.002Z,5
2018-09-17T08:16:02.461Z,5
2018-09-17T08:21:04.865Z,4
2018-09-17T08:26:07.398Z,5
2018-09-17T08:31:09.738Z,4
2018-09-17T08:36:12.316Z,5
2018-09-17T08:41:14.672Z,4
2018-09-17T08:46:17.074Z,4
2018-09-17T08:51:19.544Z,5
2018-09-17T08:56:21.952Z,4
2018-09-17T09:01:24.457Z,3
2018-09-17T09:06:26.831Z,3
2018-09-17T09:11:29.295Z,3
2018-09-17T09:16:31.715Z,3
2018-09-17T09:21:34.156Z,2
2018-09-17T09:26:36.579Z,3
2018-09-17T09:31:39.074Z,3
2018-09-17T09:36:41.524Z,3
2018-09-17T09:41:43.929Z,2
2018-09-17T09:46:46.341Z,2
2018-09-17T09:51:49.032Z,3
2018-09-17T09:56:51.787Z,3
2018-09-17T10:01:53.670Z,2
2018-09-17T10:06:56.111Z,4
2018-09-17T10:11:58.633Z,2
2018-09-17T10:17:00.990Z,3
2018-09-17T10:22:03.727Z,3
2018-09-17T10:27:05.875Z,2
2018-09-17T10:32:08.387Z,2
2018-09-17T10:37:10.755Z,3
2018-09-17T10:42:13.217Z,2
2018-09-17T10:47:15.641Z,2
2018-09-17T10:52:18.231Z,2
2018-09-17T10:57:20.609Z,2
2018-09-17T11:02:22.982Z,2
2018-09-17T11:07:25.486Z,3
2018-09-17T11:12:27.848Z,4
2018-09-17T11:17:30.402Z,4
2018-09-17T11:22:32.744Z,3
2018-09-17T11:27:35.178Z,2
2018-09-17T11:32:37.668Z,3
2018-09-17T11:37:40.190Z,3
2018-09-17T11:42:42.489Z,3
2018-09-17T11:47:44.956Z,3
2018-09-17T11:52:47.496Z,3
2018-09-17T11:57:49.835Z,5
2018-09-17T12:02:52.287Z,3
2018-09-17T12:07:54.877Z,3
2018-09-17T12:12:57.280Z,3
2018-09-17T12:17:59.608Z,3
2018-09-17T12:23:02.406Z,3
2018-09-17T12:28:04.476Z,3
2018-09-17T12:33:06.930Z,3
2018-09-17T12:38:09.544Z,3
2018-09-17T12:43:11.910Z,3
2018-09-17T12:48:14.240Z,3
2018-09-17T12:53:16.705Z,3
2018-09-17T12:58:19.157Z,4
2018-09-17T13:03:21.659Z,4
2018-09-17T13:08:24.020Z,6
2018-09-17T13:13:26.865Z,3
2018-09-17T13:18:28.901Z,3
2018-09-17T13:23:31.331Z,3
2018-09-17T13:28:33.776Z,3
2018-09-17T13:33:36.367Z,3
2018-09-17T13:38:38.691Z,3
2018-09-17T13:43:41.151Z,3
2018-09-17T13:48:43.611Z,3
2018-09-17T13:53:46.011Z,3
2018-09-17T13:58:48.439Z,3
2018-09-17T14:03:50.906Z,3
2018-09-17T14:08:53.346Z,3
2018-09-17T14:13:55.831Z,3
2018-09-17T14:18:58.223Z,2
2018-09-17T14:24:00.688Z,3
2018-09-17T14:29:03.141Z,3
2018-09-17T14:34:05.571Z,3
2018-09-17T14:39:07.968Z,3
2018-09-17T14:44:10.574Z,3
2018-09-17T14:49:12.958Z,10
2018-09-17T14:54:15.358Z,3
2018-09-17T14:59:17.770Z,3
2018-09-17T15:04:20.343Z,4
2018-09-17T15:09:22.626Z,3
2018-09-17T15:14:25.242Z,3
2018-09-17T15:19:27.546Z,3
2018-09-17T15:24:30.115Z,3
2018-09-17T15:29:32.440Z,2
2018-09-17T15:34:34.889Z,3
2018-09-17T15:39:37.291Z,2
2018-09-17T15:44:39.741Z,2
2018-09-17T15:49:42.214Z,2
2018-09-17T15:54:44.640Z,3
2018-09-17T15:59:47.057Z,2
2018-09-17T16:04:49.584Z,3
2018-09-17T16:09:51.975Z,3
2018-09-17T16:14:54.369Z,3
2018-09-17T16:19:56.943Z,3
2018-09-17T16:24:59.355Z,2
2018-09-17T16:30:06.752Z,3
2018-09-17T16:35:04.268Z,2
2018-09-17T16:40:06.621Z,2
2018-09-17T16:45:09.167Z,3
2018-09-17T16:50:11.482Z,3
2018-09-17T16:55:13.925Z,3
2018-09-17T17:00:16.387Z,4
2018-09-17T17:05:19.005Z,3
2018-09-17T17:10:21.400Z,3
2018-09-17T17:15:23.711Z,3
2018-09-17T17:20:26.151Z,3
2018-09-17T17:25:28.607Z,3
2018-09-17T17:30:31.034Z,3
2018-09-17T17:35:33.446Z,4
2018-09-17T17:40:36.122Z,3
2018-09-17T17:45:38.326Z,3
2018-09-17T17:50:40.775Z,5
2018-09-17T17:55:43.271Z,4
2018-09-17T18:00:45.690Z,7
2018-09-17T18:05:48.081Z,4
2018-09-17T18:10:50.602Z,5
2018-09-17T18:15:53.064Z,4
2018-09-17T18:20:55.482Z,4
2018-09-17T18:25:57.992Z,4
2018-09-17T18:31:00.301Z,4
2018-09-17T18:36:02.744Z,4
2018-09-17T18:41:05.197Z,4
2018-09-17T18:46:07.638Z,4
2018-09-17T18:51:10.122Z,4
2018-09-17T18:56:12.514Z,4
2018-09-17T19:01:14.966Z,4
2018-09-17T19:06:17.531Z,4
2018-09-17T19:11:20.050Z,4
2018-09-17T19:16:22.322Z,4
2018-09-17T19:21:24.752Z,4
2018-09-17T19:26:27.165Z,5
2018-09-17T19:31:29.587Z,5
2018-09-17T19:36:32.023Z,5
2018-09-17T19:41:34.508Z,5
2018-09-17T19:46:36.894Z,5
2018-09-17T19:51:39.367Z,4
2018-09-17T19:56:41.791Z,4
2018-09-17T20:01:44.247Z,5
2018-09-17T20:06:46.671Z,5
2018-09-17T20:11:49.117Z,4
2018-09-17T20:16:51.553Z,4
2018-09-17T20:21:53.990Z,5
2018-09-17T20:26:56.447Z,5
2018-09-17T20:31:58.927Z,4
2018-09-17T20:37:01.349Z,5
2018-09-17T20:42:04.086Z,4
2018-09-17T20:47:06.741Z,5
2018-09-17T20:52:08.654Z,4
2018-09-17T20:57:11.078Z,4
2018-09-17T21:02:13.529Z,4
2018-09-17T21:07:16.050Z,4
2018-09-17T21:12:18.680Z,4
2018-09-17T21:17:20.845Z,4
2018-09-17T21:22:23.280Z,4
2018-09-17T21:27:25.737Z,4
2018-09-17T21:32:28.168Z,5
2018-09-17T21:37:30.625Z,4
2018-09-17T21:42:33.101Z,4
2018-09-17T21:47:35.506Z,4
2018-09-17T21:52:37.970Z,4
2018-09-17T21:57:40.369Z,4
2018-09-17T22:02:42.807Z,4
2018-09-17T22:07:45.265Z,4
2018-09-17T22:12:47.703Z,4
2018-09-17T22:17:50.280Z,5
2018-09-17T22:22:52.582Z,4
2018-09-17T22:27:55.029Z,4
2018-09-17T22:32:57.462Z,4
2018-09-17T22:37:59.903Z,5
2018-09-17T22:43:02.432Z,5
2018-09-17T22:48:04.779Z,5
2018-09-17T22:53:07.300Z,5
2018-09-17T22:58:09.668Z,5
2018-09-17T23:03:12.099Z,4
2018-09-17T23:08:14.609Z,5
2018-09-17T23:13:16.981Z,5
2018-09-17T23:18:19.415Z,5
2018-09-17T23:23:22.442Z,5
2018-09-17T23:28:24.308Z,5
2018-09-17T23:33:26.858Z,5
2018-09-17T23:38:29.196Z,6
2018-09-17T23:43:32.015Z,5
2018-09-17T23:48:34.059Z,6
2018-09-17T23:53:36.499Z,6
2018-09-17T23:58:38.952Z,6
